sensor_id;sensor_type;location;lat;lon;timestamp;P1;P2;P0
79117;PMS7003;68523;51.336;-0.846;2023-05-07T00:00:00;unknown;unknown;
79117;PMS7003;68523;51.336;-0.846;2023-05-07T00:03:00;unknown;unknown;
79117;PMS7003;68523;51.336;-0.846;2023-05-07T00:06:00;unknown;unknown;
79117;PMS7003;68523;51.336;-0.846;2023-05-07T00:09:00;26;17;
79117;PMS7003;68523;51.336;-0.846;2023-05-07T00:12:00;26;17;
79117;PMS7003;68523;51.336;-0.846;2023-05-07T00:15:01;unknown;unknown;
79117;PMS7003;68523;51.336;-0.846;2023-05-07T00:18:00;unknown;unknown;
79117;PMS7003;68523;51.336;-0.846;2023-05-07T00:21:00;17;16;
79117;PMS7003;68523;51.336;-0.846;2023-05-07T00:24:00;21;16;
79117;PMS7003;68523;51.336;-0.846;2023-05-07T00:27:00;21;16;
79117;PMS7003;68523;51.336;-0.846;2023-05-07T00:30:00;23;19;
79117;PMS7003;68523;51.336;-0.846;2023-05-07T00:33:00;23;19;
79117;PMS7003;68523;51.336;-0.846;2023-05-07T00:36:00;unavailable;unavailable;
79117;PMS7003;68523;51.336;-0.846;2023-05-07T00:39:00;21;17;
79117;PMS7003;68523;51.336;-0.846;2023-05-07T00:42:00;21;17;
79117;PMS7003;68523;51.336;-0.846;2023-05-07T00:45:00;23;16;
79117;PMS7003;68523;51.336;-0.846;2023-05-07T00:48:00;23;16;
79117;PMS7003;68523;51.336;-0.846;2023-05-07T00:51:00;19;16;
79117;PMS7003;68523;51.336;-0.846;2023-05-07T00:54:00;16;16;
79117;PMS7003;68523;51.336;-0.846;2023-05-07T00:57:01;16;16;
79117;PMS7003;68523;51.336;-0.846;2023-05-07T01:00:00;17;15;
79117;PMS7003;68523;51.336;-0.846;2023-05-07T01:03:00;17;15;
79117;PMS7003;68523;51.336;-0.846;2023-05-07T01:06:00;unavailable;unavailable;
79117;PMS7003;68523;51.336;-0.846;2023-05-07T01:09:00;unknown;unknown;
79117;PMS7003;68523;51.336;-0.846;2023-05-07T01:12:00;17;16;
79117;PMS7003;68523;51.336;-0.846;2023-05-07T01:15:00;17;16;
79117;PMS7003;68523;51.336;-0.846;2023-05-07T01:18:00;19;14;
79117;PMS7003;68523;51.336;-0.846;2023-05-07T01:21:00;19;14;
79117;PMS7003;68523;51.336;-0.846;2023-05-07T01:24:00;unknown;unknown;
79117;PMS7003;68523;51.336;-0.846;2023-05-07T01:27:00;17;13;
79117;PMS7003;68523;51.336;-0.846;2023-05-07T01:30:00;17;13;
79117;PMS7003;68523;51.336;-0.846;2023-05-07T01:33:01;16;14;
79117;PMS7003;68523;51.336;-0.846;2023-05-07T01:36:00;unavailable;unavailable;
79117;PMS7003;68523;51.336;-0.846;2023-05-07T01:39:00;unknown;unknown;
79117;PMS7003;68523;51.336;-0.846;2023-05-07T01:42:00;13;13;
79117;PMS7003;68523;51.336;-0.846;2023-05-07T01:45:00;unavailable;unavailable;
79117;PMS7003;68523;51.336;-0.846;2023-05-07T01:48:01;13;10;
79117;PMS7003;68523;51.336;-0.846;2023-05-07T01:51:00;13;13;
79117;PMS7003;68523;51.336;-0.846;2023-05-07T01:54:00;13;13;
79117;PMS7003;68523;51.336;-0.846;2023-05-07T01:57:00;unknown;unknown;
79117;PMS7003;68523;51.336;-0.846;2023-05-07T02:00:00;unknown;unknown;
79117;PMS7003;68523;51.336;-0.846;2023-05-07T02:03:00;15;13;
79117;PMS7003;68523;51.336;-0.846;2023-05-07T02:06:00;15;13;
79117;PMS7003;68523;51.336;-0.846;2023-05-07T02:09:00;12;12;
79117;PMS7003;68523;51.336;-0.846;2023-05-07T02:12:00;11;11;
79117;PMS7003;68523;51.336;-0.846;2023-05-07T02:15:00;11;11;
79117;PMS7003;68523;51.336;-0.846;2023-05-07T02:18:01;12;9;
79117;PMS7003;68523;51.336;-0.846;2023-05-07T02:21:00;12;9;
79117;PMS7003;68523;51.336;-0.846;2023-05-07T02:24:00;unknown;unknown;
79117;PMS7003;68523;51.336;-0.846;2023-05-07T02:27:00;unknown;unknown;
79117;PMS7003;68523;51.336;-0.846;2023-05-07T02:30:00;17;14;
79117;PMS7003;68523;51.336;-0.846;2023-05-07T02:33:00;17;14;
79117;PMS7003;68523;51.336;-0.846;2023-05-07T02:36:05;17;13;
79117;PMS7003;68523;51.336;-0.846;2023-05-07T02:39:00;17;13;
79117;PMS7003;68523;51.336;-0.846;2023-05-07T02:42:00;20;15;
79117;PMS7003;68523;51.336;-0.846;2023-05-07T02:45:00;20;17;
79117;PMS7003;68523;51.336;-0.846;2023-05-07T02:48:00;20;17;
79117;PMS7003;68523;51.336;-0.846;2023-05-07T02:51:00;23;18;
79117;PMS7003;68523;51.336;-0.846;2023-05-07T02:54:00;23;21;
79117;PMS7003;68523;51.336;-0.846;2023-05-07T02:57:00;23;21;
79117;PMS7003;68523;51.336;-0.846;2023-05-07T03:00:06;22;17;
79117;PMS7003;68523;51.336;-0.846;2023-05-07T03:03:00;22;17;
79117;PMS7003;68523;51.336;-0.846;2023-05-07T03:06:00;25;18;
79117;PMS7003;68523;51.336;-0.846;2023-05-07T03:09:00;25;22;
79117;PMS7003;68523;51.336;-0.846;2023-05-07T03:12:00;25;22;
79117;PMS7003;68523;51.336;-0.846;2023-05-07T03:15:00;26;24;
79117;PMS7003;68523;51.336;-0.846;2023-05-07T03:18:00;26;24;
79117;PMS7003;68523;51.336;-0.846;2023-05-07T03:21:00;36;28;
79117;PMS7003;68523;51.336;-0.846;2023-05-07T03:24:00;44;33;
79117;PMS7003;68523;51.336;-0.846;2023-05-07T03:27:00;44;33;
79117;PMS7003;68523;51.336;-0.846;2023-05-07T03:30:00;37;32;
79117;PMS7003;68523;51.336;-0.846;2023-05-07T03:33:00;37;32;
79117;PMS7003;68523;51.336;-0.846;2023-05-07T03:36:00;unknown;unknown;
79117;PMS7003;68523;51.336;-0.846;2023-05-07T03:39:00;unknown;unknown;
79117;PMS7003;68523;51.336;-0.846;2023-05-07T03:42:00;35;27;
79117;PMS7003;68523;51.336;-0.846;2023-05-07T03:45:00;40;31;
79117;PMS7003;68523;51.336;-0.846;2023-05-07T03:48:00;40;31;
79117;PMS7003;68523;51.336;-0.846;2023-05-07T03:51:00;40;31;
79117;PMS7003;68523;51.336;-0.846;2023-05-07T03:54:00;unknown;unknown;
79117;PMS7003;68523;51.336;-0.846;2023-05-07T03:57:00;29;25;
79117;PMS7003;68523;51.336;-0.846;2023-05-07T04:00:01;29;25;
79117;PMS7003;68523;51.336;-0.846;2023-05-07T04:03:00;40;31;
79117;PMS7003;68523;51.336;-0.846;2023-05-07T04:06:00;40;31;
79117;PMS7003;68523;51.336;-0.846;2023-05-07T04:09:00;40;31;
79117;PMS7003;68523;51.336;-0.846;2023-05-07T04:12:00;39;30;
79117;PMS7003;68523;51.336;-0.846;2023-05-07T04:15:00;39;30;
79117;PMS7003;68523;51.336;-0.846;2023-05-07T04:18:00;28;25;
79117;PMS7003;68523;51.336;-0.846;2023-05-07T04:21:00;28;25;
79117;PMS7003;68523;51.336;-0.846;2023-05-07T04:24:00;41;35;
79117;PMS7003;68523;51.336;-0.846;2023-05-07T04:27:00;41;35;
79117;PMS7003;68523;51.336;-0.846;2023-05-07T04:30:00;35;31;
79117;PMS7003;68523;51.336;-0.846;2023-05-07T04:33:00;32;28;
79117;PMS7003;68523;51.336;-0.846;2023-05-07T04:36:01;32;28;
79117;PMS7003;68523;51.336;-0.846;2023-05-07T04:39:00;40;33;
79117;PMS7003;68523;51.336;-0.846;2023-05-07T04:42:00;44;34;
79117;PMS7003;68523;51.336;-0.846;2023-05-07T04:45:01;44;34;
79117;PMS7003;68523;51.336;-0.846;2023-05-07T04:48:00;42;32;
79117;PMS7003;68523;51.336;-0.846;2023-05-07T04:51:00;42;32;
79117;PMS7003;68523;51.336;-0.846;2023-05-07T04:54:00;unknown;unknown;
79117;PMS7003;68523;51.336;-0.846;2023-05-07T04:57:00;unknown;unknown;
79117;PMS7003;68523;51.336;-0.846;2023-05-07T05:00:00;35;28;
79117;PMS7003;68523;51.336;-0.846;2023-05-07T05:03:00;35;28;
79117;PMS7003;68523;51.336;-0.846;2023-05-07T05:06:00;37;30;
79117;PMS7003;68523;51.336;-0.846;2023-05-07T05:09:00;33;27;
79117;PMS7003;68523;51.336;-0.846;2023-05-07T05:12:00;33;27;
79117;PMS7003;68523;51.336;-0.846;2023-05-07T05:15:00;31;27;
79117;PMS7003;68523;51.336;-0.846;2023-05-07T05:18:00;31;27;
79117;PMS7003;68523;51.336;-0.846;2023-05-07T05:21:00;41;31;
79117;PMS7003;68523;51.336;-0.846;2023-05-07T05:24:00;27;24;
79117;PMS7003;68523;51.336;-0.846;2023-05-07T05:27:00;27;24;
79117;PMS7003;68523;51.336;-0.846;2023-05-07T05:30:00;36;25;
79117;PMS7003;68523;51.336;-0.846;2023-05-07T05:33:00;36;25;
79117;PMS7003;68523;51.336;-0.846;2023-05-07T05:36:00;unavailable;unavailable;
79117;PMS7003;68523;51.336;-0.846;2023-05-07T05:39:00;unknown;unknown;
79117;PMS7003;68523;51.336;-0.846;2023-05-07T05:42:00;unavailable;unavailable;
79117;PMS7003;68523;51.336;-0.846;2023-05-07T05:45:00;33;27;
79117;PMS7003;68523;51.336;-0.846;2023-05-07T05:48:00;30;25;
79117;PMS7003;68523;51.336;-0.846;2023-05-07T05:51:00;37;31;
79117;PMS7003;68523;51.336;-0.846;2023-05-07T05:54:00;37;31;
79117;PMS7003;68523;51.336;-0.846;2023-05-07T05:57:00;37;27;
79117;PMS7003;68523;51.336;-0.846;2023-05-07T06:00:00;37;27;
79117;PMS7003;68523;51.336;-0.846;2023-05-07T06:03:00;31;26;
79117;PMS7003;68523;51.336;-0.846;2023-05-07T06:06:00;31;25;
79117;PMS7003;68523;51.336;-0.846;2023-05-07T06:09:00;31;25;
79117;PMS7003;68523;51.336;-0.846;2023-05-07T06:12:00;unavailable;unavailable;
79117;PMS7003;68523;51.336;-0.846;2023-05-07T06:15:00;unknown;unknown;
79117;PMS7003;68523;51.336;-0.846;2023-05-07T06:18:00;unknown;unknown;
79117;PMS7003;68523;51.336;-0.846;2023-05-07T06:21:00;25;22;
79117;PMS7003;68523;51.336;-0.846;2023-05-07T06:24:00;unavailable;unavailable;
79117;PMS7003;68523;51.336;-0.846;2023-05-07T06:27:00;unknown;unknown;
79117;PMS7003;68523;51.336;-0.846;2023-05-07T06:30:00;25;19;
79117;PMS7003;68523;51.336;-0.846;2023-05-07T06:33:00;25;19;
79117;PMS7003;68523;51.336;-0.846;2023-05-07T06:36:00;30;26;
79117;PMS7003;68523;51.336;-0.846;2023-05-07T06:39:00;30;26;
79117;PMS7003;68523;51.336;-0.846;2023-05-07T06:42:00;unknown;unknown;
79117;PMS7003;68523;51.336;-0.846;2023-05-07T06:45:00;21;19;
79117;PMS7003;68523;51.336;-0.846;2023-05-07T06:48:00;21;19;
79117;PMS7003;68523;51.336;-0.846;2023-05-07T06:51:00;26;21;
79117;PMS7003;68523;51.336;-0.846;2023-05-07T06:54:00;26;21;
79117;PMS7003;68523;51.336;-0.846;2023-05-07T06:57:00;23;18;
79117;PMS7003;68523;51.336;-0.846;2023-05-07T07:00:00;20;19;
79117;PMS7003;68523;51.336;-0.846;2023-05-07T07:03:00;20;19;
79117;PMS7003;68523;51.336;-0.846;2023-05-07T07:06:00;25;20;
79117;PMS7003;68523;51.336;-0.846;2023-05-07T07:09:00;25;20;
79117;PMS7003;68523;51.336;-0.846;2023-05-07T07:12:00;25;21;
79117;PMS7003;68523;51.336;-0.846;2023-05-07T07:15:00;21;17;
79117;PMS7003;68523;51.336;-0.846;2023-05-07T07:18:00;21;17;
79117;PMS7003;68523;51.336;-0.846;2023-05-07T07:21:00;23;20;
79117;PMS7003;68523;51.336;-0.846;2023-05-07T07:24:00;23;20;
79117;PMS7003;68523;51.336;-0.846;2023-05-07T07:27:00;28;20;
79117;PMS7003;68523;51.336;-0.846;2023-05-07T07:30:00;28;20;
79117;PMS7003;68523;51.336;-0.846;2023-05-07T07:33:00;21;16;
79117;PMS7003;68523;51.336;-0.846;2023-05-07T07:36:00;18;15;
79117;PMS7003;68523;51.336;-0.846;2023-05-07T07:39:00;18;15;
79117;PMS7003;68523;51.336;-0.846;2023-05-07T07:42:00;unknown;unknown;
79117;PMS7003;68523;51.336;-0.846;2023-05-07T07:45:01;unknown;unknown;
79117;PMS7003;68523;51.336;-0.846;2023-05-07T07:48:00;unknown;unknown;
79117;PMS7003;68523;51.336;-0.846;2023-05-07T07:51:00;unknown;unknown;
79117;PMS7003;68523;51.336;-0.846;2023-05-07T07:54:00;unknown;unknown;
79117;PMS7003;68523;51.336;-0.846;2023-05-07T07:57:00;20;20;
79117;PMS7003;68523;51.336;-0.846;2023-05-07T08:00:00;21;18;
79117;PMS7003;68523;51.336;-0.846;2023-05-07T08:03:00;21;18;
79117;PMS7003;68523;51.336;-0.846;2023-05-07T08:06:00;17;14;
79117;PMS7003;68523;51.336;-0.846;2023-05-07T08:09:00;20;17;
79117;PMS7003;68523;51.336;-0.846;2023-05-07T08:12:00;20;17;
79117;PMS7003;68523;51.336;-0.846;2023-05-07T08:15:00;17;14;
79117;PMS7003;68523;51.336;-0.846;2023-05-07T08:18:02;unavailable;unavailable;
79117;PMS7003;68523;51.336;-0.846;2023-05-07T08:21:00;unknown;unknown;
79117;PMS7003;68523;51.336;-0.846;2023-05-07T08:24:00;unavailable;unavailable;
79117;PMS7003;68523;51.336;-0.846;2023-05-07T08:27:00;unknown;unknown;
79117;PMS7003;68523;51.336;-0.846;2023-05-07T08:30:00;17;15;
79117;PMS7003;68523;51.336;-0.846;2023-05-07T08:33:00;17;15;
79117;PMS7003;68523;51.336;-0.846;2023-05-07T08:36:00;14;12;
79117;PMS7003;68523;51.336;-0.846;2023-05-07T08:39:00;14;12;
79117;PMS7003;68523;51.336;-0.846;2023-05-07T08:42:00;13;10;
79117;PMS7003;68523;51.336;-0.846;2023-05-07T08:45:00;13;10;
79117;PMS7003;68523;51.336;-0.846;2023-05-07T08:48:02;unknown;unknown;
79117;PMS7003;68523;51.336;-0.846;2023-05-07T08:51:00;14;11;
79117;PMS7003;68523;51.336;-0.846;2023-05-07T08:54:00;unknown;unknown;
79117;PMS7003;68523;51.336;-0.846;2023-05-07T08:57:00;unknown;unknown;
79117;PMS7003;68523;51.336;-0.846;2023-05-07T09:00:00;19;17;
79117;PMS7003;68523;51.336;-0.846;2023-05-07T09:03:00;19;17;
79117;PMS7003;68523;51.336;-0.846;2023-05-07T09:06:00;15;14;
79117;PMS7003;68523;51.336;-0.846;2023-05-07T09:09:00;11;10;
79117;PMS7003;68523;51.336;-0.846;2023-05-07T09:12:00;11;10;
79117;PMS7003;68523;51.336;-0.846;2023-05-07T09:15:00;13;13;
79117;PMS7003;68523;51.336;-0.846;2023-05-07T09:18:00;13;13;
79117;PMS7003;68523;51.336;-0.846;2023-05-07T09:21:00;11;11;
79117;PMS7003;68523;51.336;-0.846;2023-05-07T09:24:00;11;11;
79117;PMS7003;68523;51.336;-0.846;2023-05-07T09:27:00;16;14;
79117;PMS7003;68523;51.336;-0.846;2023-05-07T09:30:02;17;15;
79117;PMS7003;68523;51.336;-0.846;2023-05-07T09:33:01;17;15;
79117;PMS7003;68523;51.336;-0.846;2023-05-07T09:36:02;24;22;
79117;PMS7003;68523;51.336;-0.846;2023-05-07T09:39:00;17;12;
79117;PMS7003;68523;51.336;-0.846;2023-05-07T09:42:00;17;12;
79117;PMS7003;68523;51.336;-0.846;2023-05-07T09:45:00;20;14;
79117;PMS7003;68523;51.336;-0.846;2023-05-07T09:48:00;20;14;
79117;PMS7003;68523;51.336;-0.846;2023-05-07T09:51:01;13;13;
79117;PMS7003;68523;51.336;-0.846;2023-05-07T09:54:00;15;12;
79117;PMS7003;68523;51.336;-0.846;2023-05-07T09:57:01;15;12;
79117;PMS7003;68523;51.336;-0.846;2023-05-07T10:00:01;13;13;
79117;PMS7003;68523;51.336;-0.846;2023-05-07T10:03:00;13;13;
79117;PMS7003;68523;51.336;-0.846;2023-05-07T10:06:00;11;10;
79117;PMS7003;68523;51.336;-0.846;2023-05-07T10:09:00;14;12;
79117;PMS7003;68523;51.336;-0.846;2023-05-07T10:12:00;14;12;
79117;PMS7003;68523;51.336;-0.846;2023-05-07T10:15:00;19;16;
79117;PMS7003;68523;51.336;-0.846;2023-05-07T10:18:00;19;16;
79117;PMS7003;68523;51.336;-0.846;2023-05-07T10:21:02;18;18;
79117;PMS7003;68523;51.336;-0.846;2023-05-07T10:24:03;15;15;
79117;PMS7003;68523;51.336;-0.846;2023-05-07T10:27:00;15;15;
79117;PMS7003;68523;51.336;-0.846;2023-05-07T10:30:03;13;12;
79117;PMS7003;68523;51.336;-0.846;2023-05-07T10:33:01;13;12;
79117;PMS7003;68523;51.336;-0.846;2023-05-07T10:36:00;13;13;
79117;PMS7003;68523;51.336;-0.846;2023-05-07T10:39:00;11;10;
79117;PMS7003;68523;51.336;-0.846;2023-05-07T10:42:07;11;10;
79117;PMS7003;68523;51.336;-0.846;2023-05-07T10:48:08;12;11;
79117;PMS7003;68523;51.336;-0.846;2023-05-07T10:57:06;12;10;
79117;PMS7003;68523;51.336;-0.846;2023-05-07T11:00:00;10;10;
79117;PMS7003;68523;51.336;-0.846;2023-05-07T11:03:07;10;10;
79117;PMS7003;68523;51.336;-0.846;2023-05-07T11:09:00;8;8;
79117;PMS7003;68523;51.336;-0.846;2023-05-07T11:12:00;8;8;
79117;PMS7003;68523;51.336;-0.846;2023-05-07T11:15:00;12;10;
79117;PMS7003;68523;51.336;-0.846;2023-05-07T11:18:00;12;10;
79117;PMS7003;68523;51.336;-0.846;2023-05-07T11:21:00;10;10;
79117;PMS7003;68523;51.336;-0.846;2023-05-07T11:24:00;9;9;
79117;PMS7003;68523;51.336;-0.846;2023-05-07T11:27:00;9;9;
79117;PMS7003;68523;51.336;-0.846;2023-05-07T11:30:00;9;9;
79117;PMS7003;68523;51.336;-0.846;2023-05-07T11:33:00;9;9;
79117;PMS7003;68523;51.336;-0.846;2023-05-07T11:36:01;7;7;
79117;PMS7003;68523;51.336;-0.846;2023-05-07T11:39:00;9;8;
79117;PMS7003;68523;51.336;-0.846;2023-05-07T11:42:00;9;8;
79117;PMS7003;68523;51.336;-0.846;2023-05-07T11:45:01;6;6;
79117;PMS7003;68523;51.336;-0.846;2023-05-07T11:48:01;6;6;
79117;PMS7003;68523;51.336;-0.846;2023-05-07T11:51:01;16;14;
79117;PMS7003;68523;51.336;-0.846;2023-05-07T11:54:00;16;14;
79117;PMS7003;68523;51.336;-0.846;2023-05-07T11:57:00;19;17;
79117;PMS7003;68523;51.336;-0.846;2023-05-07T12:00:00;7;6;
79117;PMS7003;68523;51.336;-0.846;2023-05-07T12:03:02;7;6;
79117;PMS7003;68523;51.336;-0.846;2023-05-07T12:06:00;7;7;
79117;PMS7003;68523;51.336;-0.846;2023-05-07T12:09:00;7;7;
79117;PMS7003;68523;51.336;-0.846;2023-05-07T12:12:03;7;7;
79117;PMS7003;68523;51.336;-0.846;2023-05-07T12:15:00;unknown;unknown;
79117;PMS7003;68523;51.336;-0.846;2023-05-07T12:18:00;unknown;unknown;
79117;PMS7003;68523;51.336;-0.846;2023-05-07T12:21:00;7;7;
79117;PMS7003;68523;51.336;-0.846;2023-05-07T12:24:01;7;7;
79117;PMS7003;68523;51.336;-0.846;2023-05-07T12:27:00;7;7;
79117;PMS7003;68523;51.336;-0.846;2023-05-07T12:30:00;7;6;
79117;PMS7003;68523;51.336;-0.846;2023-05-07T12:33:00;unknown;unknown;
79117;PMS7003;68523;51.336;-0.846;2023-05-07T12:36:02;9;8;
79117;PMS7003;68523;51.336;-0.846;2023-05-07T12:39:00;unavailable;unavailable;
79117;PMS7003;68523;51.336;-0.846;2023-05-07T12:42:00;unknown;unknown;
79117;PMS7003;68523;51.336;-0.846;2023-05-07T12:45:01;unknown;unknown;
79117;PMS7003;68523;51.336;-0.846;2023-05-07T12:48:01;11;9;
79117;PMS7003;68523;51.336;-0.846;2023-05-07T12:51:00;unknown;unknown;
79117;PMS7003;68523;51.336;-0.846;2023-05-07T12:54:00;unknown;unknown;
79117;PMS7003;68523;51.336;-0.846;2023-05-07T12:57:01;6;4;
79117;PMS7003;68523;51.336;-0.846;2023-05-07T13:00:00;5;5;
79117;PMS7003;68523;51.336;-0.846;2023-05-07T13:03:00;5;5;
79117;PMS7003;68523;51.336;-0.846;2023-05-07T13:06:00;9;9;
79117;PMS7003;68523;51.336;-0.846;2023-05-07T13:09:00;9;9;
79117;PMS7003;68523;51.336;-0.846;2023-05-07T13:12:00;unavailable;unavailable;
79117;PMS7003;68523;51.336;-0.846;2023-05-07T13:15:00;4;3;
79117;PMS7003;68523;51.336;-0.846;2023-05-07T13:18:00;4;3;
79117;PMS7003;68523;51.336;-0.846;2023-05-07T13:21:00;7;3;
79117;PMS7003;68523;51.336;-0.846;2023-05-07T13:24:00;7;3;
79117;PMS7003;68523;51.336;-0.846;2023-05-07T13:27:00;4;4;
79117;PMS7003;68523;51.336;-0.846;2023-05-07T13:30:00;4;4;
79117;PMS7003;68523;51.336;-0.846;2023-05-07T13:33:00;4;4;
79117;PMS7003;68523;51.336;-0.846;2023-05-07T13:36:00;5;5;
79117;PMS7003;68523;51.336;-0.846;2023-05-07T13:39:00;unavailable;unavailable;
79117;PMS7003;68523;51.336;-0.846;2023-05-07T13:42:00;unknown;unknown;
79117;PMS7003;68523;51.336;-0.846;2023-05-07T13:45:00;4;4;
79117;PMS7003;68523;51.336;-0.846;2023-05-07T13:48:00;4;4;
79117;PMS7003;68523;51.336;-0.846;2023-05-07T13:51:00;2;2;
79117;PMS7003;68523;51.336;-0.846;2023-05-07T13:54:00;2;2;
79117;PMS7003;68523;51.336;-0.846;2023-05-07T13:57:00;5;4;
79117;PMS7003;68523;51.336;-0.846;2023-05-07T14:00:00;3;3;
79117;PMS7003;68523;51.336;-0.846;2023-05-07T14:03:00;3;3;
79117;PMS7003;68523;51.336;-0.846;2023-05-07T14:06:00;3;3;
79117;PMS7003;68523;51.336;-0.846;2023-05-07T14:09:00;3;3;
79117;PMS7003;68523;51.336;-0.846;2023-05-07T14:12:00;4;3;
79117;PMS7003;68523;51.336;-0.846;2023-05-07T14:15:00;4;3;
79117;PMS7003;68523;51.336;-0.846;2023-05-07T14:18:00;4;3;
79117;PMS7003;68523;51.336;-0.846;2023-05-07T14:21:00;3;3;
79117;PMS7003;68523;51.336;-0.846;2023-05-07T14:24:00;3;3;
79117;PMS7003;68523;51.336;-0.846;2023-05-07T14:27:00;4;4;
79117;PMS7003;68523;51.336;-0.846;2023-05-07T14:30:00;2;2;
79117;PMS7003;68523;51.336;-0.846;2023-05-07T14:33:00;unknown;unknown;
79117;PMS7003;68523;51.336;-0.846;2023-05-07T14:36:00;unknown;unknown;
79117;PMS7003;68523;51.336;-0.846;2023-05-07T14:39:00;2;2;
79117;PMS7003;68523;51.336;-0.846;2023-05-07T14:42:00;2;2;
79117;PMS7003;68523;51.336;-0.846;2023-05-07T14:45:00;3;3;
79117;PMS7003;68523;51.336;-0.846;2023-05-07T14:48:00;5;3;
79117;PMS7003;68523;51.336;-0.846;2023-05-07T14:51:00;5;3;
79117;PMS7003;68523;51.336;-0.846;2023-05-07T14:54:00;4;4;
79117;PMS7003;68523;51.336;-0.846;2023-05-07T14:57:00;unavailable;unavailable;
79117;PMS7003;68523;51.336;-0.846;2023-05-07T15:00:00;unknown;unknown;
79117;PMS7003;68523;51.336;-0.846;2023-05-07T15:03:03;unknown;unknown;
79117;PMS7003;68523;51.336;-0.846;2023-05-07T15:06:01;unknown;unknown;
79117;PMS7003;68523;51.336;-0.846;2023-05-07T15:09:00;5;5;
79117;PMS7003;68523;51.336;-0.846;2023-05-07T15:12:00;4;3;
79117;PMS7003;68523;51.336;-0.846;2023-05-07T15:15:00;4;3;
79117;PMS7003;68523;51.336;-0.846;2023-05-07T15:18:00;4;4;
79117;PMS7003;68523;51.336;-0.846;2023-05-07T15:21:00;3;3;
79117;PMS7003;68523;51.336;-0.846;2023-05-07T15:24:00;3;3;
79117;PMS7003;68523;51.336;-0.846;2023-05-07T15:27:00;3;3;
79117;PMS7003;68523;51.336;-0.846;2023-05-07T15:30:00;3;3;
79117;PMS7003;68523;51.336;-0.846;2023-05-07T15:33:00;unavailable;unavailable;
79117;PMS7003;68523;51.336;-0.846;2023-05-07T15:36:00;4;2;
79117;PMS7003;68523;51.336;-0.846;2023-05-07T15:39:00;2;2;
79117;PMS7003;68523;51.336;-0.846;2023-05-07T15:42:00;3;3;
79117;PMS7003;68523;51.336;-0.846;2023-05-07T15:45:00;3;3;
79117;PMS7003;68523;51.336;-0.846;2023-05-07T15:48:00;unknown;unknown;
79117;PMS7003;68523;51.336;-0.846;2023-05-07T15:51:00;unknown;unknown;
79117;PMS7003;68523;51.336;-0.846;2023-05-07T15:54:00;3;3;
79117;PMS7003;68523;51.336;-0.846;2023-05-07T15:57:00;5;4;
79117;PMS7003;68523;51.336;-0.846;2023-05-07T16:00:00;5;4;
79117;PMS7003;68523;51.336;-0.846;2023-05-07T16:03:00;unavailable;unavailable;
79117;PMS7003;68523;51.336;-0.846;2023-05-07T16:06:00;unknown;unknown;
79117;PMS7003;68523;51.336;-0.846;2023-05-07T16:09:00;3;3;
79117;PMS7003;68523;51.336;-0.846;2023-05-07T16:12:00;3;3;
79117;PMS7003;68523;51.336;-0.846;2023-05-07T16:15:00;4;4;
79117;PMS7003;68523;51.336;-0.846;2023-05-07T16:18:00;4;4;
79117;PMS7003;68523;51.336;-0.846;2023-05-07T16:21:00;2;2;
79117;PMS7003;68523;51.336;-0.846;2023-05-07T16:24:00;2;2;
79117;PMS7003;68523;51.336;-0.846;2023-05-07T16:27:00;3;3;
79117;PMS7003;68523;51.336;-0.846;2023-05-07T16:30:00;3;3;
79117;PMS7003;68523;51.336;-0.846;2023-05-07T16:33:00;unknown;unknown;
79117;PMS7003;68523;51.336;-0.846;2023-05-07T16:36:00;unknown;unknown;
79117;PMS7003;68523;51.336;-0.846;2023-05-07T16:39:00;4;4;
79117;PMS7003;68523;51.336;-0.846;2023-05-07T16:42:00;6;2;
79117;PMS7003;68523;51.336;-0.846;2023-05-07T16:45:00;6;2;
79117;PMS7003;68523;51.336;-0.846;2023-05-07T16:48:00;6;6;
79117;PMS7003;68523;51.336;-0.846;2023-05-07T16:51:00;6;6;
79117;PMS7003;68523;51.336;-0.846;2023-05-07T16:54:00;5;5;
79117;PMS7003;68523;51.336;-0.846;2023-05-07T16:57:00;10;9;
79117;PMS7003;68523;51.336;-0.846;2023-05-07T17:00:00;10;9;
79117;PMS7003;68523;51.336;-0.846;2023-05-07T17:03:01;11;10;
79117;PMS7003;68523;51.336;-0.846;2023-05-07T17:06:00;11;10;
79117;PMS7003;68523;51.336;-0.846;2023-05-07T17:09:00;10;8;
79117;PMS7003;68523;51.336;-0.846;2023-05-07T17:12:00;12;10;
79117;PMS7003;68523;51.336;-0.846;2023-05-07T17:15:00;12;10;
79117;PMS7003;68523;51.336;-0.846;2023-05-07T17:18:00;16;12;
79117;PMS7003;68523;51.336;-0.846;2023-05-07T17:21:00;16;12;
79117;PMS7003;68523;51.336;-0.846;2023-05-07T17:24:00;13;10;
79117;PMS7003;68523;51.336;-0.846;2023-05-07T17:27:00;13;12;
79117;PMS7003;68523;51.336;-0.846;2023-05-07T17:30:00;13;12;
79117;PMS7003;68523;51.336;-0.846;2023-05-07T17:33:00;15;13;
79117;PMS7003;68523;51.336;-0.846;2023-05-07T17:36:00;15;13;
79117;PMS7003;68523;51.336;-0.846;2023-05-07T17:39:00;13;12;
79117;PMS7003;68523;51.336;-0.846;2023-05-07T17:42:00;30;25;
79117;PMS7003;68523;51.336;-0.846;2023-05-07T17:45:00;30;25;
79117;PMS7003;68523;51.336;-0.846;2023-05-07T17:48:00;12;11;
79117;PMS7003;68523;51.336;-0.846;2023-05-07T17:51:00;12;11;
79117;PMS7003;68523;51.336;-0.846;2023-05-07T17:54:00;15;12;
79117;PMS7003;68523;51.336;-0.846;2023-05-07T17:57:00;31;26;
79117;PMS7003;68523;51.336;-0.846;2023-05-07T18:00:00;31;26;
79117;PMS7003;68523;51.336;-0.846;2023-05-07T18:03:00;12;12;
79117;PMS7003;68523;51.336;-0.846;2023-05-07T18:06:00;12;12;
79117;PMS7003;68523;51.336;-0.846;2023-05-07T18:09:00;15;14;
79117;PMS7003;68523;51.336;-0.846;2023-05-07T18:12:00;10;10;
79117;PMS7003;68523;51.336;-0.846;2023-05-07T18:15:00;10;10;
79117;PMS7003;68523;51.336;-0.846;2023-05-07T18:18:00;unknown;unknown;
79117;PMS7003;68523;51.336;-0.846;2023-05-07T18:21:00;unknown;unknown;
79117;PMS7003;68523;51.336;-0.846;2023-05-07T18:24:00;14;11;
79117;PMS7003;68523;51.336;-0.846;2023-05-07T18:27:00;10;10;
79117;PMS7003;68523;51.336;-0.846;2023-05-07T18:30:00;10;10;
79117;PMS7003;68523;51.336;-0.846;2023-05-07T18:33:00;10;8;
79117;PMS7003;68523;51.336;-0.846;2023-05-07T18:36:00;10;8;
79117;PMS7003;68523;51.336;-0.846;2023-05-07T18:39:00;11;10;
79117;PMS7003;68523;51.336;-0.846;2023-05-07T18:42:00;10;10;
79117;PMS7003;68523;51.336;-0.846;2023-05-07T18:45:00;10;10;
79117;PMS7003;68523;51.336;-0.846;2023-05-07T18:48:00;14;13;
79117;PMS7003;68523;51.336;-0.846;2023-05-07T18:51:00;14;13;
79117;PMS7003;68523;51.336;-0.846;2023-05-07T18:54:00;18;17;
79117;PMS7003;68523;51.336;-0.846;2023-05-07T18:57:00;21;19;
79117;PMS7003;68523;51.336;-0.846;2023-05-07T19:00:00;21;19;
79117;PMS7003;68523;51.336;-0.846;2023-05-07T19:03:00;12;9;
79117;PMS7003;68523;51.336;-0.846;2023-05-07T19:06:00;12;9;
79117;PMS7003;68523;51.336;-0.846;2023-05-07T19:09:00;17;15;
79117;PMS7003;68523;51.336;-0.846;2023-05-07T19:12:00;13;10;
79117;PMS7003;68523;51.336;-0.846;2023-05-07T19:15:00;13;10;